Terminal Aerodrome Forecast
Issued by NWS

Home | Current Version | Previous Version | Text Only | Print | Product List | Glossary On
Versions: 1 2 3 4 5 6 7 8 9 10 11 12 13 14 15
000
FTAK31 PAFA 210539
TAFAQT
TAF
PAQT 210539Z 2106/2206 24025KT 6SM -SN BLSN BR SCT015 OVC025
      WS020/24045KT
     FM211800 24025KT 6SM -SN BLSN SCT015 BKN025 OVC050=

USA.gov is the U.S. government's official web portal to all federal, state and local government web resources and services.